createdAt,value
2023-06-07T00:00:49.696Z,19.17
2023-06-07T00:01:53.510Z,19.18
2023-06-07T00:02:59.739Z,19.21
2023-06-07T00:04:04.344Z,19.21
2023-06-07T00:05:08.402Z,19.11
2023-06-07T00:06:11.963Z,18.97
2023-06-07T00:07:18.767Z,18.90
2023-06-07T00:08:22.318Z,18.87
2023-06-07T00:09:27.709Z,18.78
2023-06-07T00:10:31.423Z,18.77
2023-06-07T00:11:36.101Z,18.75
2023-06-07T00:12:39.584Z,18.76
2023-06-07T00:13:45.748Z,18.77
2023-06-07T00:14:49.382Z,18.71
2023-06-07T00:15:55.350Z,18.68
2023-06-07T00:16:57.608Z,18.57
2023-06-07T00:18:02.137Z,18.53
2023-06-07T00:19:07.300Z,18.43
2023-06-07T00:20:11.660Z,18.42
2023-06-07T00:21:15.768Z,18.50
2023-06-07T00:22:20.419Z,18.50
2023-06-07T00:23:24.940Z,18.49
2023-06-07T00:24:28.803Z,18.45
2023-06-07T00:25:32.691Z,18.45
2023-06-07T00:26:36.423Z,18.50
2023-06-07T00:27:44.470Z,18.55
2023-06-07T00:28:47.612Z,18.58
2023-06-07T00:29:52.166Z,18.49
2023-06-07T00:30:58.766Z,18.46
2023-06-07T00:32:05.242Z,18.39
2023-06-07T00:33:08.870Z,18.38
2023-06-07T00:34:12.654Z,18.43
2023-06-07T00:35:18.929Z,18.42
2023-06-07T00:36:22.698Z,18.42
2023-06-07T00:37:27.611Z,18.40
2023-06-07T00:38:32.319Z,18.27
2023-06-07T00:39:38.435Z,18.30
2023-06-07T00:40:41.749Z,18.25
2023-06-07T00:41:48.334Z,18.12
2023-06-07T00:42:53.677Z,18.03
2023-06-07T00:43:56.980Z,18.01
2023-06-07T00:45:02.452Z,18.02
2023-06-07T00:46:07.272Z,17.98
2023-06-07T00:47:10.588Z,17.99
2023-06-07T00:48:14.621Z,18.02
2023-06-07T00:49:21.680Z,18.08
2023-06-07T00:50:25.296Z,18.15
2023-06-07T00:51:34.624Z,18.15
2023-06-07T00:52:40.663Z,18.25
2023-06-07T00:53:46.148Z,18.25
2023-06-07T00:54:52.055Z,18.32
2023-06-07T00:55:54.930Z,18.38
2023-06-07T00:56:58.537Z,18.40
2023-06-07T00:58:02.459Z,18.46
2023-06-07T00:59:07.246Z,18.43
2023-06-07T01:00:14.653Z,18.44
2023-06-07T01:01:21.952Z,18.37
2023-06-07T01:02:25.829Z,18.33
2023-06-07T01:03:34.256Z,18.32
2023-06-07T01:04:40.230Z,18.32
2023-06-07T01:05:46.410Z,18.34
2023-06-07T01:06:50.746Z,18.37
2023-06-07T01:07:55.641Z,18.43
2023-06-07T01:09:00.897Z,18.40
2023-06-07T01:10:07.740Z,18.43
2023-06-07T01:11:16.795Z,18.40
2023-06-07T01:12:20.726Z,18.40
2023-06-07T01:13:24.214Z,18.41
2023-06-07T01:14:27.379Z,18.36
2023-06-07T01:15:34.245Z,18.38
2023-06-07T01:16:39.260Z,18.43
2023-06-07T01:17:44.634Z,18.39
2023-06-07T01:18:48.690Z,18.44
2023-06-07T01:19:56.016Z,18.41
2023-06-07T01:21:02.654Z,18.40
2023-06-07T01:22:10.045Z,18.40
2023-06-07T01:23:13.848Z,18.37
2023-06-07T01:24:24.315Z,18.40
2023-06-07T01:25:26.816Z,18.46
2023-06-07T01:26:30.507Z,18.45
2023-06-07T01:27:35.431Z,18.43
2023-06-07T01:28:43.582Z,18.47
2023-06-07T01:29:48.237Z,18.44
2023-06-07T01:30:52.364Z,18.46
2023-06-07T01:32:01.017Z,18.43
2023-06-07T01:33:05.806Z,18.39
2023-06-07T01:34:09.780Z,18.36
2023-06-07T01:35:14.301Z,18.31
2023-06-07T01:36:16.888Z,18.32
2023-06-07T01:37:24.717Z,18.37
2023-06-07T01:38:32.255Z,18.41
2023-06-07T01:39:36.426Z,18.43
2023-06-07T01:40:40.425Z,18.44
2023-06-07T01:41:43.819Z,18.45
2023-06-07T01:42:49.302Z,18.49
2023-06-07T01:43:52.827Z,18.54
2023-06-07T01:44:56.321Z,18.51
2023-06-07T01:46:01.594Z,18.43
2023-06-07T01:47:05.706Z,18.43
2023-06-07T01:48:09.239Z,18.46
2023-06-07T01:49:14.036Z,18.47
2023-06-07T01:50:23.184Z,18.41
2023-06-07T01:51:26.643Z,18.34
2023-06-07T01:52:32.774Z,18.38
2023-06-07T01:53:36.960Z,18.42
2023-06-07T01:54:40.506Z,18.43
2023-06-07T01:55:44.927Z,18.47
2023-06-07T01:57:05.927Z,18.48
2023-06-07T01:58:11.479Z,18.54
2023-06-07T01:59:15.637Z,18.56
2023-06-07T02:00:27.900Z,18.61
2023-06-07T02:01:37.552Z,18.62
2023-06-07T02:03:00.253Z,18.56
2023-06-07T02:04:06.530Z,18.38
2023-06-07T02:05:13.772Z,18.34
2023-06-07T02:06:19.867Z,18.32
2023-06-07T02:07:26.425Z,18.31
2023-06-07T02:08:37.043Z,18.40
2023-06-07T02:09:42.044Z,18.45
2023-06-07T02:10:46.542Z,18.49
2023-06-07T02:11:50.465Z,18.55
2023-06-07T02:12:55.982Z,18.56
2023-06-07T02:14:01.907Z,18.57
2023-06-07T02:15:08.069Z,18.62
2023-06-07T02:16:12.746Z,18.64
2023-06-07T02:17:17.559Z,18.60
2023-06-07T02:18:22.722Z,18.60
2023-06-07T02:19:29.681Z,18.61
2023-06-07T02:20:36.678Z,18.64
2023-06-07T02:21:41.845Z,18.68
2023-06-07T02:22:50.831Z,18.72
2023-06-07T02:23:54.660Z,18.74
2023-06-07T02:24:59.412Z,18.75
2023-06-07T02:26:04.606Z,18.75
2023-06-07T02:27:08.152Z,18.83
2023-06-07T02:28:11.658Z,18.82
2023-06-07T02:29:16.638Z,18.79
2023-06-07T02:30:20.785Z,18.82
2023-06-07T02:31:25.017Z,18.89
2023-06-07T02:32:30.652Z,18.97
2023-06-07T02:33:34.299Z,18.97
2023-06-07T02:34:38.117Z,18.97
2023-06-07T02:35:42.798Z,19.05
2023-06-07T02:36:48.162Z,19.04
2023-06-07T02:37:52.498Z,19.13
2023-06-07T02:38:56.031Z,19.20
2023-06-07T02:40:00.530Z,19.19
2023-06-07T02:41:04.155Z,19.23
2023-06-07T02:42:08.225Z,19.29
2023-06-07T02:43:15.205Z,19.35
2023-06-07T02:44:18.862Z,19.41
2023-06-07T02:45:22.037Z,19.49
2023-06-07T02:46:25.329Z,19.60
2023-06-07T02:47:30.001Z,19.67
2023-06-07T02:48:34.037Z,19.73
2023-06-07T02:49:37.639Z,19.79
2023-06-07T02:50:41.972Z,19.73
2023-06-07T02:51:46.729Z,19.85
2023-06-07T02:52:51.853Z,19.94
2023-06-07T02:53:55.506Z,20.03
2023-06-07T02:54:59.535Z,20.14
2023-06-07T02:56:03.309Z,20.23
2023-06-07T02:57:06.236Z,20.35
2023-06-07T02:58:09.019Z,20.46
2023-06-07T02:59:13.668Z,20.50
2023-06-07T03:00:19.472Z,20.55
2023-06-07T03:01:26.700Z,20.49
2023-06-07T03:02:33.799Z,20.36
2023-06-07T03:03:40.193Z,20.38
2023-06-07T03:04:48.213Z,20.48
2023-06-07T03:05:51.724Z,20.52
2023-06-07T03:06:58.616Z,20.56
2023-06-07T03:08:05.594Z,20.79
2023-06-07T03:09:10.712Z,20.96
2023-06-07T03:11:19.168Z,21.17
2023-06-07T03:12:23.929Z,21.21
2023-06-07T03:13:30.740Z,21.11
2023-06-07T03:14:37.868Z,21.00
2023-06-07T03:15:43.328Z,20.90
2023-06-07T03:16:48.435Z,20.93
2023-06-07T03:17:52.169Z,20.85
2023-06-07T03:18:57.177Z,20.68
2023-06-07T03:20:04.131Z,20.55
2023-06-07T03:21:12.042Z,20.68
2023-06-07T03:22:16.360Z,20.67
2023-06-07T03:23:19.657Z,20.74
2023-06-07T03:24:25.211Z,20.70
2023-06-07T03:25:30.222Z,20.80
2023-06-07T03:26:34.133Z,20.91
2023-06-07T03:27:38.226Z,20.93
2023-06-07T03:28:45.916Z,21.05
2023-06-07T03:29:49.516Z,20.80
2023-06-07T03:30:53.322Z,20.72
2023-06-07T03:31:58.795Z,20.73
2023-06-07T03:33:05.851Z,20.89
2023-06-07T03:34:11.530Z,20.86
2023-06-07T03:35:15.134Z,20.88
2023-06-07T03:36:29.741Z,20.95
2023-06-07T03:37:34.287Z,20.95
2023-06-07T03:38:38.268Z,21.13
2023-06-07T03:39:42.105Z,21.24
2023-06-07T03:40:45.477Z,21.34
2023-06-07T03:41:51.208Z,21.33
2023-06-07T03:42:55.954Z,21.12
2023-06-07T03:43:59.936Z,21.11
2023-06-07T03:45:12.272Z,21.08
2023-06-07T03:46:17.332Z,21.18
2023-06-07T03:47:21.684Z,21.28
2023-06-07T03:48:25.080Z,21.35
2023-06-07T03:49:30.466Z,21.39
2023-06-07T03:50:34.184Z,21.47
2023-06-07T03:51:41.008Z,21.45
2023-06-07T03:52:44.841Z,21.49
2023-06-07T03:53:48.451Z,21.45
2023-06-07T03:54:51.951Z,21.59
2023-06-07T03:55:57.550Z,21.53
2023-06-07T03:57:03.263Z,21.32
2023-06-07T03:58:07.696Z,21.38
2023-06-07T03:59:14.232Z,21.48
2023-06-07T04:00:20.598Z,21.59
2023-06-07T04:01:27.524Z,21.70
2023-06-07T04:02:34.313Z,21.78
2023-06-07T04:03:37.795Z,21.68
2023-06-07T04:04:43.244Z,21.33
2023-06-07T04:05:46.476Z,20.90
2023-06-07T04:06:50.255Z,20.46
2023-06-07T04:07:55.128Z,20.71
2023-06-07T04:08:59.116Z,20.70
2023-06-07T04:10:05.880Z,20.76
2023-06-07T04:11:09.610Z,20.93
2023-06-07T04:12:13.406Z,20.80
2023-06-07T04:13:18.698Z,20.80
2023-06-07T04:14:21.360Z,20.77
2023-06-07T04:15:24.729Z,20.74
2023-06-07T04:16:28.087Z,20.66
2023-06-07T04:17:31.648Z,20.66
2023-06-07T04:18:35.601Z,20.62
2023-06-07T04:19:45.555Z,20.86
2023-06-07T04:20:45.011Z,21.25
2023-06-07T04:21:52.363Z,21.32
2023-06-07T04:22:55.979Z,21.35
2023-06-07T04:24:00.062Z,21.29
2023-06-07T04:25:05.502Z,21.36
2023-06-07T04:26:09.569Z,21.50
2023-06-07T04:27:15.330Z,21.54
2023-06-07T04:28:20.092Z,21.48
2023-06-07T04:29:22.539Z,21.58
2023-06-07T04:30:27.941Z,21.59
2023-06-07T04:31:34.349Z,21.86
2023-06-07T04:32:41.165Z,22.05
2023-06-07T04:33:50.707Z,22.32
2023-06-07T04:34:56.872Z,22.82
2023-06-07T04:36:00.815Z,22.99
2023-06-07T04:37:05.787Z,22.99
2023-06-07T04:38:10.009Z,23.04
2023-06-07T04:39:12.790Z,23.38
2023-06-07T04:40:19.159Z,23.58
2023-06-07T04:41:26.288Z,24.09
2023-06-07T04:42:30.321Z,24.42
2023-06-07T04:43:35.276Z,24.70
2023-06-07T04:44:38.054Z,25.18
2023-06-07T04:45:42.837Z,25.53
2023-06-07T04:46:50.695Z,25.65
2023-06-07T04:47:54.712Z,25.91
2023-06-07T04:49:00.781Z,26.35
2023-06-07T04:50:05.436Z,26.53
2023-06-07T04:51:13.508Z,26.50
2023-06-07T04:52:21.798Z,26.26
2023-06-07T04:53:27.284Z,26.20
2023-06-07T04:54:30.582Z,26.55
2023-06-07T04:55:35.352Z,26.80
2023-06-07T04:56:39.896Z,27.21
2023-06-07T04:57:44.229Z,27.40
2023-06-07T04:58:51.194Z,27.44
2023-06-07T04:59:56.147Z,27.52
2023-06-07T05:01:04.467Z,27.43
2023-06-07T05:02:08.282Z,27.12
2023-06-07T05:03:14.955Z,27.15
2023-06-07T05:04:18.943Z,27.45
2023-06-07T05:05:25.861Z,27.69
2023-06-07T05:06:31.702Z,27.57
2023-06-07T05:07:35.932Z,27.81
2023-06-07T05:08:40.371Z,27.81
2023-06-07T05:09:44.249Z,27.72
2023-06-07T05:10:48.329Z,27.87
2023-06-07T05:11:52.982Z,28.63
2023-06-07T05:13:00.418Z,29.41
2023-06-07T05:14:04.625Z,29.76
2023-06-07T05:15:08.919Z,29.83
2023-06-07T05:16:14.226Z,29.81
2023-06-07T05:17:19.933Z,30.33
2023-06-07T05:18:27.904Z,30.95
2023-06-07T05:19:31.904Z,31.69
2023-06-07T05:20:35.873Z,32.07
2023-06-07T05:21:40.035Z,32.34
2023-06-07T05:22:45.492Z,33.10
2023-06-07T05:23:49.378Z,33.75
2023-06-07T05:24:59.057Z,34.81
2023-06-07T05:26:01.985Z,35.43
2023-06-07T05:27:06.274Z,35.96
2023-06-07T05:28:13.418Z,36.21
2023-06-07T05:29:18.825Z,35.88
2023-06-07T05:30:22.750Z,34.80
2023-06-07T05:31:29.394Z,34.99
2023-06-07T05:32:33.819Z,34.55
2023-06-07T05:33:52.900Z,34.75
2023-06-07T05:34:59.982Z,35.10
2023-06-07T05:36:08.264Z,34.76
2023-06-07T05:37:10.936Z,34.30
2023-06-07T05:38:14.343Z,34.27
2023-06-07T05:39:20.431Z,33.35
2023-06-07T05:40:24.068Z,33.29
2023-06-07T05:41:30.189Z,33.54
2023-06-07T05:42:36.996Z,33.24
2023-06-07T05:43:43.083Z,33.28
2023-06-07T05:44:47.652Z,33.50
2023-06-07T05:45:50.005Z,33.83
2023-06-07T05:46:54.083Z,33.57
2023-06-07T05:47:58.044Z,33.33
2023-06-07T05:49:05.084Z,33.51
2023-06-07T05:50:13.283Z,33.62
2023-06-07T05:51:16.975Z,33.82
2023-06-07T05:52:20.814Z,34.27
2023-06-07T05:53:27.738Z,34.37
2023-06-07T05:54:31.247Z,34.93
2023-06-07T05:55:34.029Z,34.97
2023-06-07T05:56:36.298Z,35.03
2023-06-07T05:57:43.546Z,35.34
2023-06-07T05:58:48.205Z,35.24
2023-06-07T05:59:52.200Z,34.68
2023-06-07T06:00:56.190Z,34.24
2023-06-07T06:01:59.911Z,34.10
2023-06-07T06:03:05.927Z,34.29
2023-06-07T06:04:09.685Z,34.86
2023-06-07T06:05:12.853Z,35.45
2023-06-07T06:06:17.451Z,36.04
2023-06-07T06:07:21.347Z,35.71
2023-06-07T06:08:25.064Z,35.00
2023-06-07T06:09:28.369Z,35.24
2023-06-07T06:10:36.161Z,35.70
2023-06-07T06:11:41.325Z,35.87
2023-06-07T06:12:44.043Z,36.24
2023-06-07T06:13:46.453Z,35.93
2023-06-07T06:14:50.273Z,35.68
2023-06-07T06:15:55.236Z,35.74
2023-06-07T06:16:58.864Z,36.24
2023-06-07T06:18:02.522Z,36.70
2023-06-07T06:19:08.935Z,37.05
2023-06-07T06:20:15.053Z,37.20
2023-06-07T06:21:20.429Z,36.90
2023-06-07T06:22:23.054Z,36.90
2023-06-07T06:23:29.621Z,36.72
2023-06-07T06:24:33.200Z,36.61
2023-06-07T06:25:40.151Z,35.97
2023-06-07T06:26:43.722Z,36.10
2023-06-07T06:27:47.573Z,36.10
2023-06-07T06:28:50.985Z,35.92
2023-06-07T06:29:54.219Z,36.17
2023-06-07T06:30:58.578Z,36.75
2023-06-07T06:32:02.496Z,36.72
2023-06-07T06:33:06.014Z,37.21
2023-06-07T06:34:12.563Z,37.42
2023-06-07T06:35:18.106Z,37.73
2023-06-07T06:36:23.764Z,38.07
2023-06-07T06:38:39.127Z,37.14
2023-06-07T06:39:45.763Z,36.60
2023-06-07T06:40:51.970Z,36.23
2023-06-07T06:41:54.703Z,36.35
2023-06-07T06:43:00.764Z,36.62
2023-06-07T06:44:06.763Z,36.76
2023-06-07T06:45:09.768Z,37.51
2023-06-07T06:46:15.156Z,37.86
2023-06-07T06:47:18.761Z,38.25
2023-06-07T06:48:23.206Z,38.49
2023-06-07T06:49:26.709Z,38.07
2023-06-07T06:50:34.941Z,37.58
2023-06-07T06:51:38.544Z,37.55
2023-06-07T06:52:43.074Z,37.55
2023-06-07T06:53:46.686Z,37.35
2023-06-07T06:54:52.625Z,37.08
2023-06-07T06:55:56.849Z,36.98
2023-06-07T06:57:00.548Z,36.79
2023-06-07T06:58:03.024Z,36.63
2023-06-07T06:59:08.268Z,35.83
2023-06-07T07:00:12.861Z,34.75
2023-06-07T07:01:18.575Z,35.17
2023-06-07T07:02:21.618Z,34.94
2023-06-07T07:03:25.335Z,34.23
2023-06-07T07:04:29.633Z,34.36
2023-06-07T07:05:40.755Z,34.19
2023-06-07T07:06:44.857Z,33.97
2023-06-07T07:07:49.634Z,33.49
2023-06-07T07:08:52.930Z,34.13
2023-06-07T07:09:57.509Z,34.14
2023-06-07T07:11:01.256Z,34.42
2023-06-07T07:12:07.785Z,34.66
2023-06-07T07:13:12.650Z,34.05
2023-06-07T07:14:18.287Z,33.49
2023-06-07T07:15:22.822Z,33.95
2023-06-07T07:16:28.247Z,34.65
2023-06-07T07:17:33.218Z,35.08
2023-06-07T07:18:36.984Z,35.00
2023-06-07T07:19:49.393Z,35.10
2023-06-07T07:20:53.992Z,35.67
2023-06-07T07:21:58.144Z,35.82
2023-06-07T07:23:06.193Z,35.73
2023-06-07T07:24:11.524Z,35.24
2023-06-07T07:25:15.012Z,35.31
2023-06-07T07:26:18.524Z,35.52
2023-06-07T07:27:25.986Z,35.70
2023-06-07T07:28:29.609Z,35.69
2023-06-07T07:29:32.896Z,36.37
2023-06-07T07:30:35.267Z,36.27
2023-06-07T07:31:42.055Z,35.89
2023-06-07T07:32:45.571Z,36.10
2023-06-07T07:33:50.369Z,36.43
2023-06-07T07:34:53.844Z,36.63
2023-06-07T07:36:01.135Z,35.78
2023-06-07T07:37:07.053Z,35.71
2023-06-07T07:38:13.330Z,35.35
2023-06-07T07:39:19.125Z,35.19
2023-06-07T07:40:28.112Z,35.58
2023-06-07T07:41:31.510Z,35.22
2023-06-07T07:42:38.075Z,35.38
2023-06-07T07:43:48.964Z,36.11
2023-06-07T07:44:52.477Z,36.32
2023-06-07T07:45:57.717Z,36.42
2023-06-07T07:47:01.256Z,37.01
2023-06-07T07:48:05.017Z,37.21
2023-06-07T07:49:12.325Z,36.74
2023-06-07T07:50:17.091Z,36.10
2023-06-07T07:51:20.183Z,35.86
2023-06-07T07:52:24.842Z,35.29
2023-06-07T07:53:28.667Z,34.90
2023-06-07T07:54:32.444Z,34.58
2023-06-07T07:55:40.137Z,34.30
2023-06-07T07:56:44.918Z,34.36
2023-06-07T07:57:48.830Z,34.77
2023-06-07T07:58:53.391Z,34.84
2023-06-07T07:59:57.704Z,34.95
2023-06-07T08:01:02.438Z,34.57
2023-06-07T08:02:07.967Z,35.02
2023-06-07T08:03:11.048Z,35.19
2023-06-07T08:04:14.782Z,34.66
2023-06-07T08:05:18.306Z,34.41
2023-06-07T08:06:21.802Z,35.14
2023-06-07T08:07:25.347Z,35.30
2023-06-07T08:08:28.609Z,35.84
2023-06-07T08:09:32.619Z,36.10
2023-06-07T08:10:37.309Z,35.56
2023-06-07T08:11:40.720Z,35.25
2023-06-07T08:12:44.914Z,35.05
2023-06-07T08:13:50.397Z,35.17
2023-06-07T08:14:55.693Z,34.95
2023-06-07T08:15:59.397Z,35.27
2023-06-07T08:17:09.068Z,35.52
2023-06-07T08:18:13.282Z,35.22
2023-06-07T08:19:16.868Z,35.33
2023-06-07T08:20:20.491Z,35.22
2023-06-07T08:21:24.048Z,34.88
2023-06-07T08:22:27.109Z,34.57
2023-06-07T08:23:31.030Z,34.46
2023-06-07T08:24:35.783Z,34.46
2023-06-07T08:25:38.442Z,34.46
2023-06-07T08:26:43.278Z,34.92
2023-06-07T08:27:48.909Z,34.84
2023-06-07T08:28:52.612Z,34.29
2023-06-07T08:29:55.804Z,34.95
2023-06-07T08:30:59.878Z,35.02
2023-06-07T08:32:03.048Z,34.62
2023-06-07T08:33:08.179Z,34.19
2023-06-07T08:34:21.427Z,34.40
2023-06-07T08:35:27.177Z,34.10
2023-06-07T08:36:35.372Z,34.20
2023-06-07T08:37:39.139Z,33.71
2023-06-07T08:38:43.888Z,33.39
2023-06-07T08:39:48.247Z,32.61
2023-06-07T08:40:54.056Z,32.47
2023-06-07T08:41:57.660Z,32.75
2023-06-07T08:43:01.650Z,32.78
2023-06-07T08:44:05.609Z,32.72
2023-06-07T08:45:17.163Z,33.01
2023-06-07T08:46:22.825Z,32.75
2023-06-07T08:47:27.029Z,32.50
2023-06-07T08:48:30.912Z,32.64
2023-06-07T08:49:39.336Z,32.88
2023-06-07T08:50:46.441Z,33.07
2023-06-07T08:51:52.820Z,33.17
2023-06-07T08:52:59.309Z,33.52
2023-06-07T08:54:03.872Z,33.53
2023-06-07T08:55:13.586Z,33.11
2023-06-07T08:56:18.460Z,33.36
2023-06-07T08:57:21.507Z,33.47
2023-06-07T08:58:25.232Z,33.80
2023-06-07T08:59:29.256Z,33.33
2023-06-07T09:00:33.072Z,33.70
2023-06-07T09:01:36.095Z,33.62
2023-06-07T09:02:40.626Z,33.83
2023-06-07T09:03:43.911Z,33.68
2023-06-07T09:04:54.829Z,34.08
2023-06-07T09:05:58.336Z,34.07
2023-06-07T09:07:04.717Z,33.69
2023-06-07T09:08:08.145Z,33.48
2023-06-07T09:09:11.508Z,33.37
2023-06-07T09:10:15.402Z,33.39
2023-06-07T09:11:21.824Z,33.88
2023-06-07T09:12:26.857Z,33.94
2023-06-07T09:13:31.912Z,33.89
2023-06-07T09:14:36.587Z,34.34
2023-06-07T09:15:40.205Z,34.08
2023-06-07T09:17:00.334Z,34.32
2023-06-07T09:18:03.498Z,34.27
2023-06-07T09:19:07.532Z,34.11
2023-06-07T09:20:13.434Z,33.92
2023-06-07T09:21:26.209Z,33.82
2023-06-07T09:22:31.370Z,34.03
2023-06-07T09:23:37.901Z,33.93
2023-06-07T09:24:40.725Z,33.52
2023-06-07T09:25:47.479Z,32.91
2023-06-07T09:26:51.284Z,33.28
2023-06-07T09:27:57.956Z,33.43
2023-06-07T09:29:03.634Z,33.14
2023-06-07T09:30:07.782Z,32.97
2023-06-07T09:31:14.544Z,32.87
2023-06-07T09:32:22.222Z,33.74
2023-06-07T09:33:35.333Z,33.48
2023-06-07T09:34:39.018Z,33.41
2023-06-07T09:35:42.500Z,34.37
2023-06-07T09:36:53.725Z,34.71
2023-06-07T09:37:59.763Z,35.04
2023-06-07T09:39:07.451Z,35.34
2023-06-07T09:40:10.879Z,35.86
2023-06-07T09:41:16.238Z,36.13
2023-06-07T09:42:18.431Z,35.71
2023-06-07T09:43:26.367Z,36.15
2023-06-07T09:44:32.063Z,36.04
2023-06-07T09:45:36.762Z,35.24
2023-06-07T09:46:40.607Z,35.21
2023-06-07T09:47:44.362Z,35.19
2023-06-07T09:48:50.850Z,35.52
2023-06-07T09:49:58.497Z,35.29
2023-06-07T09:51:02.302Z,35.19
2023-06-07T09:52:06.027Z,34.76
2023-06-07T09:53:11.253Z,34.86
2023-06-07T09:54:15.954Z,34.29
2023-06-07T09:55:33.012Z,34.07
2023-06-07T09:56:38.440Z,34.08
2023-06-07T09:57:42.126Z,34.12
2023-06-07T09:58:48.589Z,33.45
2023-06-07T10:00:05.782Z,33.49
2023-06-07T10:01:14.338Z,33.72
2023-06-07T10:02:25.055Z,33.98
2023-06-07T10:03:29.286Z,33.83
2023-06-07T10:04:36.570Z,33.83
2023-06-07T10:05:40.292Z,33.51
2023-06-07T10:06:44.941Z,33.44
2023-06-07T10:07:52.588Z,33.75
2023-06-07T10:08:56.899Z,33.85
2023-06-07T10:10:00.928Z,34.27
2023-06-07T10:11:05.175Z,34.33
2023-06-07T10:12:08.426Z,34.53
2023-06-07T10:13:13.960Z,34.00
2023-06-07T10:14:22.862Z,34.06
2023-06-07T10:15:28.755Z,34.28
2023-06-07T10:16:35.097Z,34.40
2023-06-07T10:17:52.239Z,34.21
2023-06-07T10:18:58.866Z,34.55
2023-06-07T10:20:06.189Z,34.51
2023-06-07T10:21:17.709Z,34.63
2023-06-07T10:22:24.186Z,34.81
2023-06-07T10:23:38.417Z,34.54
2023-06-07T10:24:44.824Z,34.02
2023-06-07T10:25:50.217Z,33.93
2023-06-07T10:26:57.246Z,34.22
2023-06-07T10:28:05.050Z,34.32
2023-06-07T10:29:12.790Z,34.13
2023-06-07T10:30:18.237Z,34.14
2023-06-07T10:31:23.685Z,34.09
2023-06-07T10:32:29.251Z,34.04
2023-06-07T10:33:33.920Z,33.81
2023-06-07T10:34:38.836Z,33.50
2023-06-07T10:35:42.672Z,33.82
2023-06-07T10:36:46.791Z,33.97
2023-06-07T10:37:52.411Z,33.34
2023-06-07T10:39:05.016Z,32.78
2023-06-07T10:40:13.578Z,32.77
2023-06-07T10:41:17.273Z,32.89
2023-06-07T10:42:20.814Z,33.05
2023-06-07T10:43:28.927Z,32.58
2023-06-07T10:44:32.959Z,32.19
2023-06-07T10:45:36.674Z,32.11
2023-06-07T10:46:42.274Z,32.52
2023-06-07T10:47:47.684Z,32.71
2023-06-07T10:48:52.185Z,32.38
2023-06-07T10:49:55.991Z,32.02
2023-06-07T10:50:59.842Z,31.93
2023-06-07T10:52:05.637Z,32.05
2023-06-07T10:53:12.525Z,32.41
2023-06-07T10:54:21.006Z,32.72
2023-06-07T10:55:25.866Z,32.26
2023-06-07T10:56:38.081Z,32.06
2023-06-07T10:57:41.798Z,32.14
2023-06-07T10:58:46.023Z,32.36
2023-06-07T10:59:49.401Z,32.22
2023-06-07T11:00:53.721Z,32.21
2023-06-07T11:02:15.402Z,31.97
2023-06-07T11:03:30.076Z,31.98
2023-06-07T11:04:37.423Z,32.30
2023-06-07T11:06:00.837Z,32.49
2023-06-07T11:07:21.522Z,32.44
2023-06-07T11:08:31.048Z,32.34
2023-06-07T11:09:37.019Z,32.29
2023-06-07T11:10:40.127Z,31.94
2023-06-07T11:11:43.715Z,31.97
2023-06-07T11:12:50.135Z,32.04
2023-06-07T11:13:58.239Z,32.31
2023-06-07T11:15:23.208Z,32.05
2023-06-07T11:16:32.066Z,31.92
2023-06-07T11:17:56.127Z,32.02
2023-06-07T11:19:04.589Z,31.50
2023-06-07T11:20:13.733Z,31.33
2023-06-07T11:21:19.847Z,31.09
2023-06-07T11:22:23.558Z,30.26
2023-06-07T11:23:30.016Z,30.45
2023-06-07T11:24:36.879Z,30.58
2023-06-07T11:25:40.822Z,30.82
2023-06-07T11:26:44.995Z,30.57
2023-06-07T11:27:54.727Z,30.42
2023-06-07T11:28:59.862Z,30.56
2023-06-07T11:30:04.370Z,30.72
2023-06-07T11:31:12.365Z,30.73
2023-06-07T11:32:16.077Z,30.52
2023-06-07T11:33:27.893Z,30.71
2023-06-07T11:34:32.321Z,30.63
2023-06-07T11:35:36.759Z,30.37
2023-06-07T11:36:42.019Z,30.29
2023-06-07T11:37:46.383Z,30.19
2023-06-07T11:38:55.114Z,30.38
2023-06-07T11:40:03.245Z,30.53
2023-06-07T11:41:07.987Z,30.52
2023-06-07T11:42:10.443Z,30.69
2023-06-07T11:43:13.588Z,30.55
2023-06-07T11:44:19.121Z,30.37
2023-06-07T11:45:23.123Z,30.25
2023-06-07T11:46:25.698Z,30.35
2023-06-07T11:47:29.266Z,30.26
2023-06-07T11:48:33.527Z,30.11
2023-06-07T11:49:39.434Z,30.16
2023-06-07T11:50:44.251Z,30.11
2023-06-07T11:51:51.044Z,29.99
2023-06-07T11:52:55.357Z,30.04
2023-06-07T11:54:00.054Z,30.29
2023-06-07T11:55:02.917Z,30.28
2023-06-07T11:56:06.060Z,30.53
2023-06-07T11:57:11.168Z,30.63
2023-06-07T11:58:15.011Z,30.68
2023-06-07T11:59:21.844Z,30.86
2023-06-07T12:00:24.718Z,30.97
2023-06-07T12:01:30.292Z,30.78
2023-06-07T12:02:37.394Z,30.72
2023-06-07T12:03:43.115Z,30.68
2023-06-07T12:04:46.406Z,30.77
2023-06-07T12:05:51.986Z,30.52
2023-06-07T12:06:56.926Z,30.13
2023-06-07T12:08:08.321Z,30.19
2023-06-07T12:09:17.108Z,30.35
2023-06-07T12:10:22.273Z,30.22
2023-06-07T12:11:25.339Z,30.20
2023-06-07T12:12:29.955Z,30.44
2023-06-07T12:13:37.992Z,30.46
2023-06-07T12:14:45.506Z,30.50
2023-06-07T12:15:57.199Z,30.42
2023-06-07T12:17:02.499Z,30.53
2023-06-07T12:18:05.939Z,30.75
2023-06-07T12:19:16.832Z,30.73
2023-06-07T12:20:20.568Z,30.47
2023-06-07T12:21:25.625Z,30.85
2023-06-07T12:22:27.783Z,30.62
2023-06-07T12:23:30.790Z,30.72
2023-06-07T12:24:37.699Z,30.80
2023-06-07T12:25:41.951Z,30.59
2023-06-07T12:26:45.864Z,30.80
2023-06-07T12:27:49.611Z,30.82
2023-06-07T12:28:55.538Z,30.90
2023-06-07T12:30:01.944Z,30.93
2023-06-07T12:31:06.495Z,30.37
2023-06-07T12:32:12.396Z,30.28
2023-06-07T12:33:17.169Z,30.12
2023-06-07T12:34:20.531Z,30.02
2023-06-07T12:35:26.850Z,29.95
2023-06-07T12:36:32.445Z,30.11
2023-06-07T12:37:41.913Z,30.18
2023-06-07T12:38:46.043Z,30.08
2023-06-07T12:39:52.187Z,30.20
2023-06-07T12:40:55.682Z,30.17
2023-06-07T12:41:59.594Z,30.28
2023-06-07T12:43:03.207Z,30.15
2023-06-07T12:44:07.784Z,30.09
2023-06-07T12:45:14.297Z,30.04
2023-06-07T12:46:18.345Z,30.09
2023-06-07T12:47:22.284Z,30.15
2023-06-07T12:48:25.839Z,30.12
2023-06-07T12:49:35.255Z,30.14
2023-06-07T12:50:38.910Z,30.27
2023-06-07T12:51:42.829Z,30.12
2023-06-07T12:52:46.872Z,29.88
2023-06-07T12:53:50.001Z,29.88
2023-06-07T12:54:55.014Z,29.77
2023-06-07T12:55:59.677Z,29.54
2023-06-07T12:57:03.181Z,29.58
2023-06-07T12:58:10.670Z,29.41
2023-06-07T12:59:13.442Z,29.38
2023-06-07T13:00:16.921Z,29.39
2023-06-07T13:01:20.494Z,29.44
2023-06-07T13:02:24.566Z,29.41
2023-06-07T13:03:28.228Z,29.30
2023-06-07T13:04:32.078Z,29.26
2023-06-07T13:05:35.424Z,29.07
2023-06-07T13:06:39.842Z,29.08
2023-06-07T13:07:43.033Z,29.05
2023-06-07T13:08:46.002Z,28.95
2023-06-07T13:09:52.583Z,28.76
2023-06-07T13:10:55.110Z,28.88
2023-06-07T13:11:59.554Z,28.90
2023-06-07T13:13:02.833Z,28.95
2023-06-07T13:14:06.866Z,28.86
2023-06-07T13:15:13.934Z,28.69
2023-06-07T13:16:18.936Z,28.78
2023-06-07T13:17:23.810Z,28.78
2023-06-07T13:18:27.826Z,28.84
2023-06-07T13:19:36.784Z,28.80
2023-06-07T13:20:43.143Z,28.71
2023-06-07T13:21:48.987Z,28.70
2023-06-07T13:22:53.876Z,28.56
2023-06-07T13:23:57.140Z,28.38
2023-06-07T13:25:00.543Z,28.46
2023-06-07T13:26:04.130Z,28.21
2023-06-07T13:27:09.467Z,28.16
2023-06-07T13:28:12.809Z,28.03
2023-06-07T13:29:19.345Z,28.10
2023-06-07T13:30:23.109Z,28.24
2023-06-07T13:31:28.286Z,28.22
2023-06-07T13:32:31.870Z,28.00
2023-06-07T13:33:35.452Z,28.06
2023-06-07T13:34:38.964Z,28.03
2023-06-07T13:35:42.775Z,27.73
2023-06-07T13:36:48.057Z,27.65
2023-06-07T13:37:53.755Z,27.48
2023-06-07T13:38:59.120Z,27.58
2023-06-07T13:40:03.497Z,27.38
2023-06-07T13:41:07.399Z,27.24
2023-06-07T13:42:10.435Z,27.36
2023-06-07T13:43:13.899Z,27.22
2023-06-07T13:44:19.154Z,27.25
2023-06-07T13:45:22.873Z,27.34
2023-06-07T13:46:26.414Z,27.27
2023-06-07T13:47:32.268Z,27.45
2023-06-07T13:48:38.757Z,27.63
2023-06-07T13:49:42.230Z,27.67
2023-06-07T13:50:45.525Z,27.61
2023-06-07T13:51:55.418Z,27.43
2023-06-07T13:52:59.073Z,27.18
2023-06-07T13:54:02.305Z,27.00
2023-06-07T13:55:06.494Z,26.74
2023-06-07T13:56:10.566Z,26.97
2023-06-07T13:57:16.582Z,26.96
2023-06-07T13:58:20.459Z,27.03
2023-06-07T13:59:26.486Z,26.78
2023-06-07T14:00:32.589Z,26.81
2023-06-07T14:01:37.839Z,26.40
2023-06-07T14:02:42.919Z,25.77
2023-06-07T14:03:46.971Z,25.35
2023-06-07T14:04:51.231Z,24.90